createdAt,value
2016-12-11T00:00:18.193Z,10.79
2016-12-11T00:00:44.290Z,10.79
2016-12-11T00:01:10.407Z,10.75
2016-12-11T00:01:36.687Z,10.84
2016-12-11T00:02:02.798Z,10.86
2016-12-11T00:02:28.901Z,10.84
2016-12-11T00:02:55.002Z,10.82
2016-12-11T00:03:21.120Z,10.79
2016-12-11T00:03:47.249Z,10.79
2016-12-11T00:04:13.341Z,10.71
2016-12-11T00:04:39.459Z,10.72
2016-12-11T00:05:05.609Z,10.72
2016-12-11T00:05:31.710Z,10.76
2016-12-11T00:05:57.832Z,10.71
2016-12-11T00:06:23.941Z,10.81
2016-12-11T00:06:50.042Z,10.74
2016-12-11T00:07:16.166Z,10.78
2016-12-11T00:07:42.284Z,10.79
2016-12-11T00:08:08.404Z,10.78
2016-12-11T00:08:34.504Z,10.89
2016-12-11T00:09:00.608Z,10.87
2016-12-11T00:09:26.735Z,10.92
2016-12-11T00:09:52.845Z,10.9
2016-12-11T00:10:18.936Z,10.81
2016-12-11T00:10:45.050Z,10.81
2016-12-11T00:11:11.173Z,10.81
2016-12-11T00:11:37.285Z,10.74
2016-12-11T00:12:03.392Z,10.76
2016-12-11T00:12:29.504Z,10.78
2016-12-11T00:12:55.613Z,10.84
2016-12-11T00:13:21.735Z,10.89
2016-12-11T00:13:47.883Z,10.78
2016-12-11T00:14:13.949Z,10.81
2016-12-11T00:14:40.048Z,10.81
2016-12-11T00:15:06.183Z,10.92
2016-12-11T00:15:32.274Z,10.86
2016-12-11T00:15:58.378Z,10.93
2016-12-11T00:16:24.489Z,10.92
2016-12-11T00:16:50.606Z,10.92
2016-12-11T00:17:16.711Z,10.86
2016-12-11T00:17:42.821Z,10.79
2016-12-11T00:18:08.930Z,10.89
2016-12-11T00:18:35.027Z,10.86
2016-12-11T00:19:01.146Z,10.9
2016-12-11T00:19:27.249Z,10.94
2016-12-11T00:19:53.356Z,10.99
2016-12-11T00:20:19.460Z,10.99
2016-12-11T00:20:45.579Z,10.82
2016-12-11T00:21:11.726Z,10.84
2016-12-11T00:21:37.833Z,10.92
2016-12-11T00:22:03.933Z,10.81
2016-12-11T00:22:30.041Z,10.87
2016-12-11T00:22:56.200Z,10.84
2016-12-11T00:23:22.292Z,10.87
2016-12-11T00:23:48.400Z,10.9
2016-12-11T00:24:14.506Z,10.81
2016-12-11T00:24:40.613Z,11.02
2016-12-11T00:25:06.722Z,10.96
2016-12-11T00:25:32.819Z,10.89
2016-12-11T00:25:58.921Z,10.9
2016-12-11T00:26:25.033Z,10.87
2016-12-11T00:26:51.130Z,10.89
2016-12-11T00:27:17.236Z,10.82
2016-12-11T00:27:43.346Z,10.89
2016-12-11T00:28:09.448Z,10.79
2016-12-11T00:28:35.546Z,10.76
2016-12-11T00:29:01.685Z,10.86
2016-12-11T00:29:27.788Z,10.92
2016-12-11T00:29:53.897Z,10.92
2016-12-11T00:30:19.996Z,10.86
2016-12-11T00:30:46.101Z,10.92
2016-12-11T00:31:12.212Z,10.81
2016-12-11T00:31:38.315Z,10.84
2016-12-11T00:32:04.416Z,10.84
2016-12-11T00:32:30.530Z,10.84
2016-12-11T00:32:56.634Z,10.86
2016-12-11T00:33:22.728Z,10.94
2016-12-11T00:33:48.842Z,10.89
2016-12-11T00:34:14.947Z,10.9
2016-12-11T00:34:41.045Z,10.87
2016-12-11T00:35:07.155Z,10.84
2016-12-11T00:35:33.263Z,10.9
2016-12-11T00:35:59.360Z,10.9
2016-12-11T00:36:25.467Z,10.93
2016-12-11T00:36:51.581Z,10.9
2016-12-11T00:37:17.675Z,10.9
2016-12-11T00:37:43.782Z,10.89
2016-12-11T00:38:09.897Z,10.81
2016-12-11T00:38:35.999Z,10.84
2016-12-11T00:39:02.100Z,10.86
2016-12-11T00:39:28.209Z,10.78
2016-12-11T00:39:54.311Z,10.84
2016-12-11T00:40:20.427Z,10.93
2016-12-11T00:40:46.540Z,10.93
2016-12-11T00:41:12.666Z,10.93
2016-12-11T00:41:38.777Z,10.82
2016-12-11T00:42:04.874Z,10.82
2016-12-11T00:42:30.970Z,10.94
2016-12-11T00:42:57.089Z,10.76
2016-12-11T00:43:23.191Z,10.79
2016-12-11T00:43:49.284Z,10.84
2016-12-11T00:44:15.399Z,10.87
2016-12-11T00:44:41.506Z,10.86
2016-12-11T00:45:07.603Z,10.93
2016-12-11T00:45:33.714Z,10.79
2016-12-11T00:45:59.832Z,10.89
2016-12-11T00:46:25.930Z,10.82
2016-12-11T00:46:52.031Z,10.86
2016-12-11T00:47:18.126Z,10.82
2016-12-11T00:47:44.237Z,10.82
2016-12-11T00:48:10.345Z,10.86
2016-12-11T00:48:36.441Z,10.76
2016-12-11T00:49:02.553Z,10.81
2016-12-11T00:49:28.666Z,10.81
2016-12-11T00:49:54.763Z,10.92
2016-12-11T00:50:20.870Z,10.86
2016-12-11T00:50:46.983Z,10.81
2016-12-11T00:51:13.080Z,10.76
2016-12-11T00:51:39.181Z,10.79
2016-12-11T00:52:05.286Z,10.78
2016-12-11T00:52:31.394Z,10.79
2016-12-11T00:52:57.503Z,10.78
2016-12-11T00:53:23.597Z,10.74
2016-12-11T00:53:49.705Z,10.79
2016-12-11T00:54:15.820Z,10.78
2016-12-11T00:54:41.920Z,10.81
2016-12-11T00:55:08.025Z,10.86
2016-12-11T00:55:34.146Z,10.82
2016-12-11T00:56:00.236Z,10.87
2016-12-11T00:56:26.334Z,10.76
2016-12-11T00:56:52.452Z,10.86
2016-12-11T00:57:18.555Z,10.78
2016-12-11T00:57:44.662Z,10.81
2016-12-11T00:58:10.758Z,10.82
2016-12-11T00:58:36.856Z,10.78
2016-12-11T00:59:02.970Z,10.82
2016-12-11T00:59:29.069Z,10.81
2016-12-11T00:59:55.168Z,10.82
2016-12-11T01:00:21.284Z,10.86
2016-12-11T01:00:47.421Z,10.9
2016-12-11T01:01:13.540Z,10.89
2016-12-11T01:01:39.654Z,10.81
2016-12-11T01:02:05.761Z,10.79
2016-12-11T01:02:31.856Z,10.75
2016-12-11T01:02:57.963Z,10.87
2016-12-11T01:03:24.100Z,10.75
2016-12-11T01:03:50.186Z,10.78
2016-12-11T01:04:16.291Z,10.75
2016-12-11T01:04:42.390Z,10.74
2016-12-11T01:05:08.502Z,10.82
2016-12-11T01:05:34.603Z,10.81
2016-12-11T01:06:00.705Z,10.81
2016-12-11T01:06:26.814Z,10.87
2016-12-11T01:06:52.927Z,10.87
2016-12-11T01:07:19.018Z,10.89
2016-12-11T01:07:45.123Z,10.9
2016-12-11T01:08:11.235Z,10.93
2016-12-11T01:08:37.349Z,10.87
2016-12-11T01:09:03.461Z,10.87
2016-12-11T01:09:29.560Z,10.93
2016-12-11T01:09:55.669Z,10.9
2016-12-11T01:10:21.779Z,10.89
2016-12-11T01:10:47.875Z,10.84
2016-12-11T01:11:13.981Z,10.84
2016-12-11T01:11:40.093Z,10.84
2016-12-11T01:12:06.188Z,10.75
2016-12-11T01:12:32.294Z,10.78
2016-12-11T01:12:58.411Z,10.71
2016-12-11T01:13:24.507Z,10.69
2016-12-11T01:13:50.604Z,10.68
2016-12-11T01:14:16.711Z,10.72
2016-12-11T01:14:42.814Z,10.64
2016-12-11T01:15:08.930Z,10.72
2016-12-11T01:15:35.025Z,10.71
2016-12-11T01:16:01.124Z,10.71
2016-12-11T01:16:27.238Z,10.68
2016-12-11T01:16:53.345Z,10.71
2016-12-11T01:17:19.444Z,10.74
2016-12-11T01:17:45.560Z,10.59
2016-12-11T01:18:11.690Z,10.69
2016-12-11T01:18:37.791Z,10.76
2016-12-11T01:19:03.902Z,10.68
2016-12-11T01:19:30.009Z,10.63
2016-12-11T01:19:56.124Z,10.63
2016-12-11T01:20:22.210Z,10.64
2016-12-11T01:20:48.322Z,10.63
2016-12-11T01:21:14.419Z,10.74
2016-12-11T01:21:40.528Z,10.69
2016-12-11T01:22:06.649Z,10.75
2016-12-11T01:22:32.734Z,10.71
2016-12-11T01:22:58.836Z,10.64
2016-12-11T01:23:24.948Z,10.69
2016-12-11T01:23:51.054Z,10.69
2016-12-11T01:24:17.147Z,10.59
2016-12-11T01:24:43.263Z,10.64
2016-12-11T01:25:09.367Z,10.71
2016-12-11T01:25:35.474Z,10.69
2016-12-11T01:26:01.569Z,10.68
2016-12-11T01:26:27.671Z,10.61
2016-12-11T01:26:53.780Z,10.67
2016-12-11T01:27:19.878Z,10.68
2016-12-11T01:27:45.976Z,10.68
2016-12-11T01:28:12.090Z,10.63
2016-12-11T01:28:38.195Z,10.71
2016-12-11T01:29:04.289Z,10.68
2016-12-11T01:29:30.400Z,10.68
2016-12-11T01:29:56.510Z,10.63
2016-12-11T01:30:22.607Z,10.71
2016-12-11T01:30:48.717Z,10.74
2016-12-11T01:31:14.815Z,10.71
2016-12-11T01:31:40.924Z,10.63
2016-12-11T01:32:07.057Z,10.51
2016-12-11T01:32:33.155Z,10.63
2016-12-11T01:32:59.268Z,10.64
2016-12-11T01:33:25.373Z,10.63
2016-12-11T01:33:51.477Z,10.63
2016-12-11T01:34:17.591Z,10.68
2016-12-11T01:34:43.699Z,10.64
2016-12-11T01:35:09.795Z,10.67
2016-12-11T01:35:35.898Z,10.67
2016-12-11T01:36:02.010Z,10.71
2016-12-11T01:36:28.108Z,10.63
2016-12-11T01:36:54.221Z,10.61
2016-12-11T01:37:20.314Z,10.61
2016-12-11T01:37:46.457Z,10.53
2016-12-11T01:38:12.564Z,10.59
2016-12-11T01:38:38.662Z,10.68
2016-12-11T01:39:04.767Z,10.64
2016-12-11T01:39:30.874Z,10.59
2016-12-11T01:39:56.970Z,10.54
2016-12-11T01:40:23.074Z,10.57
2016-12-11T01:40:49.188Z,10.56
2016-12-11T01:41:15.301Z,10.59
2016-12-11T01:41:41.400Z,10.49
2016-12-11T01:42:07.505Z,10.64
2016-12-11T01:42:33.610Z,10.64
2016-12-11T01:42:59.722Z,10.56
2016-12-11T01:43:25.819Z,10.69
2016-12-11T01:43:51.923Z,10.63
2016-12-11T01:44:18.036Z,10.59
2016-12-11T01:44:44.138Z,10.63
2016-12-11T01:45:10.230Z,10.61
2016-12-11T01:45:36.352Z,10.56
2016-12-11T01:46:02.453Z,10.53
2016-12-11T01:46:28.548Z,10.59
2016-12-11T01:46:54.660Z,10.54
2016-12-11T01:47:20.763Z,10.6
2016-12-11T01:47:46.866Z,10.56
2016-12-11T01:48:12.969Z,10.67
2016-12-11T01:48:39.064Z,10.67
2016-12-11T01:49:05.178Z,10.6
2016-12-11T01:49:31.277Z,10.61
2016-12-11T01:49:57.373Z,10.69
2016-12-11T01:50:23.490Z,10.64
2016-12-11T01:50:49.597Z,10.63
2016-12-11T01:51:15.713Z,10.68
2016-12-11T01:51:41.819Z,10.61
2016-12-11T01:52:07.934Z,10.63
2016-12-11T01:52:34.024Z,10.61
2016-12-11T01:53:00.168Z,10.61
2016-12-11T01:53:26.267Z,10.56
2016-12-11T01:53:52.379Z,10.56
2016-12-11T01:54:18.486Z,10.54
2016-12-11T01:54:44.584Z,10.59
2016-12-11T01:55:10.694Z,10.59
2016-12-11T01:55:36.807Z,10.61
2016-12-11T01:56:02.900Z,10.56
2016-12-11T01:56:29.006Z,10.59
2016-12-11T01:56:55.115Z,10.53
2016-12-11T01:57:21.209Z,10.51
2016-12-11T01:57:47.312Z,10.49
2016-12-11T01:58:13.424Z,10.44
2016-12-11T01:58:39.522Z,10.37
2016-12-11T01:59:05.632Z,10.54
2016-12-11T01:59:31.726Z,10.44
2016-12-11T01:59:57.831Z,10.42
2016-12-11T02:00:23.939Z,10.46
2016-12-11T02:00:50.037Z,10.41
2016-12-11T02:01:16.143Z,10.41
2016-12-11T02:01:42.250Z,10.42
2016-12-11T02:02:08.350Z,10.41
2016-12-11T02:02:34.474Z,10.46
2016-12-11T02:03:00.593Z,10.41
2016-12-11T02:03:26.694Z,10.38
2016-12-11T02:03:52.792Z,10.3
2016-12-11T02:04:18.905Z,10.35
2016-12-11T02:04:45.012Z,10.4
2016-12-11T02:05:11.109Z,10.49
2016-12-11T02:05:37.218Z,10.41
2016-12-11T02:06:03.330Z,10.3
2016-12-11T02:06:29.427Z,10.37
2016-12-11T02:06:55.538Z,10.34
2016-12-11T02:07:21.646Z,10.34
2016-12-11T02:07:47.745Z,10.28
2016-12-11T02:08:13.846Z,10.28
2016-12-11T02:08:39.959Z,10.42
2016-12-11T02:09:06.100Z,10.56
2016-12-11T02:09:32.198Z,10.38
2016-12-11T02:09:58.306Z,10.4
2016-12-11T02:10:24.412Z,10.4
2016-12-11T02:10:50.520Z,10.46
2016-12-11T02:11:16.650Z,10.38
2016-12-11T02:11:42.755Z,10.41
2016-12-11T02:12:08.868Z,10.44
2016-12-11T02:12:34.965Z,10.4
2016-12-11T02:13:01.060Z,10.44
2016-12-11T02:13:27.175Z,10.4
2016-12-11T02:13:53.281Z,10.38
2016-12-11T02:14:19.376Z,10.42
2016-12-11T02:14:45.490Z,10.35
2016-12-11T02:15:11.592Z,10.44
2016-12-11T02:15:37.697Z,10.49
2016-12-11T02:16:03.798Z,10.46
2016-12-11T02:16:29.896Z,10.42
2016-12-11T02:16:56.012Z,10.41
2016-12-11T02:17:22.146Z,10.49
2016-12-11T02:17:48.245Z,10.44
2016-12-11T02:18:14.358Z,10.51
2016-12-11T02:18:40.464Z,10.61
2016-12-11T02:19:06.561Z,10.54
2016-12-11T02:19:32.671Z,10.46
2016-12-11T02:19:58.777Z,10.46
2016-12-11T02:20:24.871Z,10.59
2016-12-11T02:20:50.973Z,10.48
2016-12-11T02:21:17.073Z,10.6
2016-12-11T02:21:43.183Z,10.44
2016-12-11T02:22:09.286Z,10.49
2016-12-11T02:22:35.389Z,10.53
2016-12-11T02:23:01.497Z,10.49
2016-12-11T02:23:27.604Z,10.56
2016-12-11T02:23:53.697Z,10.54
2016-12-11T02:24:19.802Z,10.53
2016-12-11T02:24:45.926Z,10.49
2016-12-11T02:25:12.007Z,10.46
2016-12-11T02:25:38.111Z,10.56
2016-12-11T02:26:04.225Z,10.46
2016-12-11T02:26:30.335Z,10.38
2016-12-11T02:26:56.444Z,10.44
2016-12-11T02:27:22.535Z,10.44
2016-12-11T02:27:48.637Z,10.48
2016-12-11T02:28:14.745Z,10.49
2016-12-11T02:28:40.843Z,10.51
2016-12-11T02:29:06.942Z,10.56
2016-12-11T02:29:33.053Z,10.56
2016-12-11T02:29:59.153Z,10.49
2016-12-11T02:30:25.248Z,10.49
2016-12-11T02:30:51.363Z,10.49
2016-12-11T02:31:17.468Z,10.49
2016-12-11T02:31:43.561Z,10.44
2016-12-11T02:32:09.674Z,10.49
2016-12-11T02:32:35.772Z,10.49
2016-12-11T02:33:01.884Z,10.53
2016-12-11T02:33:27.984Z,10.49
2016-12-11T02:33:54.107Z,10.56
2016-12-11T02:34:20.222Z,10.56
2016-12-11T02:34:46.330Z,10.67
2016-12-11T02:35:12.424Z,10.68
2016-12-11T02:35:38.536Z,10.61
2016-12-11T02:36:04.639Z,10.59
2016-12-11T02:36:30.736Z,10.54
2016-12-11T02:36:56.847Z,10.56
2016-12-11T02:37:22.958Z,10.49
2016-12-11T02:37:49.054Z,10.53
2016-12-11T02:38:15.163Z,10.57
2016-12-11T02:38:41.254Z,10.57
2016-12-11T02:39:07.392Z,10.56
2016-12-11T02:39:33.526Z,10.63
2016-12-11T02:39:59.622Z,10.67
2016-12-11T02:40:25.730Z,10.54
2016-12-11T02:40:51.843Z,10.59
2016-12-11T02:41:17.937Z,10.59
2016-12-11T02:41:44.043Z,10.54
2016-12-11T02:42:10.153Z,10.61
2016-12-11T02:42:36.248Z,10.63
2016-12-11T02:43:02.350Z,10.49
2016-12-11T02:43:28.451Z,10.69
2016-12-11T02:43:54.556Z,10.59
2016-12-11T02:44:20.666Z,10.54
2016-12-11T02:44:46.761Z,10.64
2016-12-11T02:45:12.861Z,10.64
2016-12-11T02:45:38.999Z,10.68
2016-12-11T02:46:05.096Z,10.68
2016-12-11T02:46:31.201Z,10.67
2016-12-11T02:46:57.309Z,10.68
2016-12-11T02:47:23.404Z,10.69
2016-12-11T02:47:49.501Z,10.67
2016-12-11T02:48:15.614Z,10.64
2016-12-11T02:48:41.722Z,10.68
2016-12-11T02:49:07.822Z,10.68
2016-12-11T02:49:33.931Z,10.68
2016-12-11T02:50:00.036Z,10.72
2016-12-11T02:50:26.137Z,10.68
2016-12-11T02:50:52.245Z,10.69
2016-12-11T02:51:18.354Z,10.64
2016-12-11T02:51:44.451Z,10.64
2016-12-11T02:52:10.553Z,10.69
2016-12-11T02:52:36.664Z,10.76
2016-12-11T02:53:02.772Z,10.72
2016-12-11T02:53:28.923Z,10.72
2016-12-11T02:53:55.034Z,10.74
2016-12-11T02:54:21.137Z,10.74
2016-12-11T02:54:47.253Z,10.84
2016-12-11T02:55:13.359Z,10.78
2016-12-11T02:55:39.471Z,10.79
2016-12-11T02:56:05.588Z,10.71
2016-12-11T02:56:31.692Z,10.71
2016-12-11T02:56:57.790Z,10.75
2016-12-11T02:57:23.940Z,10.72
2016-12-11T02:57:50.035Z,10.64
2016-12-11T02:58:16.163Z,10.69
2016-12-11T02:58:42.283Z,10.69
2016-12-11T02:59:08.389Z,10.67
2016-12-11T02:59:34.486Z,10.59
2016-12-11T03:00:00.600Z,10.71
2016-12-11T03:00:26.715Z,10.71
2016-12-11T03:00:52.828Z,10.67
2016-12-11T03:01:18.940Z,10.67
2016-12-11T03:01:45.035Z,10.6
2016-12-11T03:02:11.182Z,10.63
2016-12-11T03:02:37.279Z,10.71
2016-12-11T03:03:03.379Z,10.72
2016-12-11T03:03:29.490Z,10.68
2016-12-11T03:03:55.591Z,10.71
2016-12-11T03:04:21.691Z,10.67
2016-12-11T03:04:47.798Z,10.71
2016-12-11T03:05:13.909Z,10.67
2016-12-11T03:05:40.006Z,10.64
2016-12-11T03:06:06.109Z,10.64
2016-12-11T03:06:32.208Z,10.64
2016-12-11T03:06:58.315Z,10.69
2016-12-11T03:07:24.416Z,10.69
2016-12-11T03:07:50.515Z,10.72
2016-12-11T03:08:16.621Z,10.69
2016-12-11T03:08:42.733Z,10.64
2016-12-11T03:09:08.823Z,10.68
2016-12-11T03:09:34.931Z,10.64
2016-12-11T03:10:01.041Z,10.6
2016-12-11T03:10:27.136Z,10.69
2016-12-11T03:10:53.236Z,10.61
2016-12-11T03:11:19.340Z,10.67
2016-12-11T03:11:45.448Z,10.64
2016-12-11T03:12:11.560Z,10.59
2016-12-11T03:12:37.651Z,10.63
2016-12-11T03:13:03.759Z,10.71
2016-12-11T03:13:29.870Z,10.71
2016-12-11T03:13:55.964Z,10.72
2016-12-11T03:14:22.067Z,10.71
2016-12-11T03:14:48.182Z,10.64
2016-12-11T03:15:14.281Z,10.69
2016-12-11T03:15:40.377Z,10.75
2016-12-11T03:16:06.496Z,10.75
2016-12-11T03:16:32.598Z,10.76
2016-12-11T03:16:58.706Z,10.81
2016-12-11T03:17:24.801Z,10.69
2016-12-11T03:17:50.904Z,10.75
2016-12-11T03:18:17.016Z,10.72
2016-12-11T03:18:43.115Z,10.74
2016-12-11T03:19:09.214Z,10.72
2016-12-11T03:19:35.327Z,10.74
2016-12-11T03:20:01.429Z,10.71
2016-12-11T03:20:27.525Z,10.72
2016-12-11T03:20:53.642Z,10.75
2016-12-11T03:21:19.744Z,10.74
2016-12-11T03:21:45.844Z,10.74
2016-12-11T03:22:11.946Z,10.72
2016-12-11T03:22:38.042Z,10.72
2016-12-11T03:23:04.160Z,10.71
2016-12-11T03:23:30.311Z,10.76
2016-12-11T03:23:56.409Z,10.63
2016-12-11T03:24:22.521Z,10.69
2016-12-11T03:24:48.630Z,10.72
2016-12-11T03:25:14.727Z,10.63
2016-12-11T03:25:40.837Z,10.71
2016-12-11T03:26:06.950Z,10.71
2016-12-11T03:26:33.046Z,10.69
2016-12-11T03:26:59.153Z,10.71
2016-12-11T03:27:25.267Z,10.74
2016-12-11T03:27:51.363Z,10.79
2016-12-11T03:28:17.469Z,10.72
2016-12-11T03:28:43.568Z,10.71
2016-12-11T03:29:09.677Z,10.72
2016-12-11T03:29:35.784Z,10.68
2016-12-11T03:30:01.881Z,10.75
2016-12-11T03:30:27.984Z,10.71
2016-12-11T03:30:54.096Z,10.71
2016-12-11T03:31:20.195Z,10.78
2016-12-11T03:31:46.299Z,10.72
2016-12-11T03:32:12.409Z,10.75
2016-12-11T03:32:38.517Z,10.82
2016-12-11T03:33:04.612Z,10.79
2016-12-11T03:33:30.728Z,10.81
2016-12-11T03:33:56.835Z,10.78
2016-12-11T03:34:22.930Z,10.79
2016-12-11T03:34:49.039Z,10.74
2016-12-11T03:35:15.146Z,10.74
2016-12-11T03:35:41.241Z,10.76
2016-12-11T03:36:07.354Z,10.75
2016-12-11T03:36:33.462Z,10.81
2016-12-11T03:36:59.553Z,10.74
2016-12-11T03:37:25.662Z,10.78
2016-12-11T03:37:51.776Z,10.72
2016-12-11T03:38:17.872Z,10.74
2016-12-11T03:38:43.979Z,10.72
2016-12-11T03:39:10.084Z,10.72
2016-12-11T03:39:36.188Z,10.71
2016-12-11T03:40:02.303Z,10.72
2016-12-11T03:40:28.400Z,10.78
2016-12-11T03:40:54.504Z,10.74
2016-12-11T03:41:20.617Z,10.72
2016-12-11T03:41:46.712Z,10.74
2016-12-11T03:42:12.814Z,10.86
2016-12-11T03:42:38.925Z,10.76
2016-12-11T03:43:05.023Z,10.75
2016-12-11T03:43:31.123Z,10.75
2016-12-11T03:43:57.235Z,10.72
2016-12-11T03:44:23.338Z,10.69
2016-12-11T03:44:49.445Z,10.74
2016-12-11T03:45:15.542Z,10.74
2016-12-11T03:45:41.643Z,10.74
2016-12-11T03:46:07.755Z,10.75
2016-12-11T03:46:33.856Z,10.71
2016-12-11T03:46:59.953Z,10.79
2016-12-11T03:47:26.068Z,10.79
2016-12-11T03:47:52.170Z,10.84
2016-12-11T03:48:18.267Z,10.71
2016-12-11T03:48:44.381Z,10.71
2016-12-11T03:49:10.484Z,10.74
2016-12-11T03:49:36.577Z,10.67
2016-12-11T03:50:02.685Z,10.67
2016-12-11T03:50:28.777Z,10.75
2016-12-11T03:50:54.893Z,10.71
2016-12-11T03:51:20.995Z,10.68
2016-12-11T03:51:47.093Z,10.6
2016-12-11T03:52:13.204Z,10.6
2016-12-11T03:52:39.306Z,10.68
2016-12-11T03:53:05.401Z,10.64
2016-12-11T03:53:31.511Z,10.69
2016-12-11T03:53:57.623Z,10.64
2016-12-11T03:54:23.718Z,10.63
2016-12-11T03:54:49.823Z,10.69
2016-12-11T03:55:15.939Z,10.69
2016-12-11T03:55:42.037Z,10.69
2016-12-11T03:56:08.146Z,10.71
2016-12-11T03:56:34.240Z,10.71
2016-12-11T03:57:00.351Z,10.68
2016-12-11T03:57:26.464Z,10.71
2016-12-11T03:57:52.557Z,10.63
2016-12-11T03:58:18.659Z,10.63
2016-12-11T03:58:44.774Z,10.71
2016-12-11T03:59:10.881Z,10.71
2016-12-11T03:59:36.986Z,10.67
2016-12-11T04:00:03.085Z,10.63
2016-12-11T04:00:29.193Z,10.68
2016-12-11T04:00:55.307Z,10.59
2016-12-11T04:01:21.407Z,10.54
2016-12-11T04:01:47.507Z,10.6
2016-12-11T04:02:13.599Z,10.64
2016-12-11T04:02:39.712Z,10.68
2016-12-11T04:03:05.819Z,10.71
2016-12-11T04:03:31.915Z,10.68
2016-12-11T04:03:58.022Z,10.68
2016-12-11T04:04:24.133Z,10.69
2016-12-11T04:04:50.227Z,10.63
2016-12-11T04:05:16.331Z,10.72
2016-12-11T04:05:42.442Z,10.61
2016-12-11T04:06:08.539Z,10.67
2016-12-11T04:06:34.639Z,10.68
2016-12-11T04:07:00.744Z,10.68
2016-12-11T04:07:26.851Z,10.67
2016-12-11T04:07:52.969Z,10.61
2016-12-11T04:08:19.059Z,10.67
2016-12-11T04:08:45.166Z,10.63
2016-12-11T04:09:11.280Z,10.67
2016-12-11T04:09:37.380Z,10.67
2016-12-11T04:10:03.477Z,10.71
2016-12-11T04:10:29.595Z,10.69
2016-12-11T04:10:55.695Z,10.72
2016-12-11T04:11:21.792Z,10.69
2016-12-11T04:11:47.904Z,10.72
2016-12-11T04:12:14.004Z,10.74
2016-12-11T04:12:40.118Z,10.72
2016-12-11T04:13:06.216Z,10.69
2016-12-11T04:13:32.312Z,10.72
2016-12-11T04:13:58.428Z,10.71
2016-12-11T04:14:24.528Z,10.74
2016-12-11T04:14:50.625Z,10.71
2016-12-11T04:15:16.742Z,10.71
2016-12-11T04:15:42.839Z,10.69
2016-12-11T04:16:08.935Z,10.69
2016-12-11T04:16:35.046Z,10.74
2016-12-11T04:17:01.157Z,10.75
2016-12-11T04:17:27.253Z,10.72
2016-12-11T04:17:53.361Z,10.71
2016-12-11T04:18:19.469Z,10.74
2016-12-11T04:18:45.563Z,10.71
2016-12-11T04:19:11.669Z,10.69
2016-12-11T04:19:37.773Z,10.69
2016-12-11T04:20:03.868Z,10.64
2016-12-11T04:20:29.971Z,10.71
2016-12-11T04:20:56.087Z,10.63
2016-12-11T04:21:22.186Z,10.64
2016-12-11T04:21:48.308Z,10.64
2016-12-11T04:22:14.419Z,10.61
2016-12-11T04:22:40.520Z,10.71
2016-12-11T04:23:06.619Z,10.74
2016-12-11T04:23:32.732Z,10.63
2016-12-11T04:23:58.830Z,10.61
2016-12-11T04:24:24.941Z,10.61
2016-12-11T04:24:51.038Z,10.69
2016-12-11T04:25:17.133Z,10.72
2016-12-11T04:25:43.248Z,10.64
2016-12-11T04:26:09.351Z,10.63
2016-12-11T04:26:35.449Z,10.64
2016-12-11T04:27:01.561Z,10.64
2016-12-11T04:27:27.668Z,10.61
2016-12-11T04:27:53.764Z,10.69
2016-12-11T04:28:19.874Z,10.71
2016-12-11T04:28:45.989Z,10.68
2016-12-11T04:29:12.087Z,10.72
2016-12-11T04:29:38.192Z,10.69
2016-12-11T04:30:04.292Z,10.74
2016-12-11T04:30:30.406Z,10.79
2016-12-11T04:30:56.513Z,10.78
2016-12-11T04:31:22.613Z,10.74
2016-12-11T04:31:48.726Z,10.71
2016-12-11T04:32:14.834Z,10.78
2016-12-11T04:32:40.929Z,10.75
2016-12-11T04:33:07.036Z,10.75
2016-12-11T04:33:33.152Z,10.71
2016-12-11T04:33:59.249Z,10.72
2016-12-11T04:34:25.351Z,10.72
2016-12-11T04:34:51.453Z,10.78
2016-12-11T04:35:17.563Z,10.86
2016-12-11T04:35:43.674Z,10.86
2016-12-11T04:36:09.768Z,10.81
2016-12-11T04:36:35.875Z,10.87
2016-12-11T04:37:01.984Z,10.92
2016-12-11T04:37:28.083Z,10.87
2016-12-11T04:37:54.186Z,10.86
2016-12-11T04:38:20.294Z,10.78
2016-12-11T04:38:46.397Z,10.82
2016-12-11T04:39:12.494Z,10.67
2016-12-11T04:39:38.605Z,10.69
2016-12-11T04:40:04.703Z,10.76
2016-12-11T04:40:30.813Z,10.75
2016-12-11T04:40:56.905Z,10.71
2016-12-11T04:41:23.006Z,10.81
2016-12-11T04:41:49.110Z,10.78
2016-12-11T04:42:15.210Z,10.72
2016-12-11T04:42:41.308Z,10.71
2016-12-11T04:43:07.420Z,10.74
2016-12-11T04:43:33.523Z,10.81
2016-12-11T04:43:59.617Z,10.75
2016-12-11T04:44:25.730Z,10.71
2016-12-11T04:44:51.837Z,10.76
2016-12-11T04:45:17.936Z,10.74
2016-12-11T04:45:44.043Z,10.74
2016-12-11T04:46:10.138Z,10.71
2016-12-11T04:46:36.257Z,10.72
2016-12-11T04:47:02.357Z,10.71
2016-12-11T04:47:28.457Z,10.71
2016-12-11T04:47:54.567Z,10.75
2016-12-11T04:48:20.674Z,10.71
2016-12-11T04:48:46.799Z,10.74
2016-12-11T04:49:12.910Z,10.76
2016-12-11T04:49:39.024Z,10.69
2016-12-11T04:50:05.117Z,10.61
2016-12-11T04:50:31.217Z,10.71
2016-12-11T04:50:57.328Z,10.71
2016-12-11T04:51:23.425Z,10.64
2016-12-11T04:51:49.535Z,10.71
2016-12-11T04:52:15.633Z,10.67
2016-12-11T04:52:41.740Z,10.69
2016-12-11T04:53:07.852Z,10.72
2016-12-11T04:53:33.949Z,10.67
2016-12-11T04:54:00.051Z,10.68
2016-12-11T04:54:26.163Z,10.6
2016-12-11T04:54:52.259Z,10.54
2016-12-11T04:55:18.359Z,10.57
2016-12-11T04:55:44.471Z,10.57
2016-12-11T04:56:10.574Z,10.67
2016-12-11T04:56:36.673Z,10.53
2016-12-11T04:57:02.779Z,10.67
2016-12-11T04:57:28.880Z,10.68
2016-12-11T04:57:54.988Z,10.63
2016-12-11T04:58:21.090Z,10.64
2016-12-11T04:58:47.194Z,10.64
2016-12-11T04:59:13.308Z,10.64
2016-12-11T04:59:39.407Z,10.49
2016-12-11T05:00:05.504Z,10.57
2016-12-11T05:00:31.617Z,10.51
2016-12-11T05:00:57.721Z,10.57
2016-12-11T05:01:23.817Z,10.61
2016-12-11T05:01:49.929Z,10.57
2016-12-11T05:02:16.033Z,10.56
2016-12-11T05:02:42.133Z,10.54
2016-12-11T05:03:08.243Z,10.59
2016-12-11T05:03:34.353Z,10.53
2016-12-11T05:04:00.445Z,10.44
2016-12-11T05:04:26.550Z,10.51
2016-12-11T05:04:52.661Z,10.48
2016-12-11T05:05:18.761Z,10.46
2016-12-11T05:05:44.865Z,10.41
2016-12-11T05:06:10.977Z,10.44
2016-12-11T05:06:37.073Z,10.42
2016-12-11T05:07:03.172Z,10.41
2016-12-11T05:07:29.287Z,10.34
2016-12-11T05:07:55.386Z,10.4
2016-12-11T05:08:21.496Z,10.31
2016-12-11T05:08:47.590Z,10.33
2016-12-11T05:09:13.692Z,10.33
2016-12-11T05:09:39.808Z,10.34
2016-12-11T05:10:05.913Z,10.2
2016-12-11T05:10:32.011Z,10.28
2016-12-11T05:10:58.126Z,10.28
2016-12-11T05:11:24.226Z,10.31
2016-12-11T05:11:50.319Z,10.25
2016-12-11T05:12:16.427Z,10.34
2016-12-11T05:12:42.530Z,10.3
2016-12-11T05:13:08.629Z,10.26
2016-12-11T05:13:34.741Z,10.3
2016-12-11T05:14:00.837Z,10.26
2016-12-11T05:14:26.957Z,10.26
2016-12-11T05:14:53.090Z,10.3
2016-12-11T05:15:19.186Z,10.23
2016-12-11T05:15:45.298Z,10.17
2016-12-11T05:16:11.404Z,10.3
2016-12-11T05:16:37.530Z,10.3
2016-12-11T05:17:03.636Z,10.31
2016-12-11T05:17:29.747Z,10.23
2016-12-11T05:17:55.837Z,10.16
2016-12-11T05:18:21.944Z,10.09
2016-12-11T05:18:48.053Z,10.12
2016-12-11T05:19:14.150Z,10.17
2016-12-11T05:19:40.262Z,10.2
2016-12-11T05:20:06.355Z,10.28
2016-12-11T05:20:32.461Z,10.22
2016-12-11T05:20:58.570Z,10.3
2016-12-11T05:21:24.662Z,10.28
2016-12-11T05:21:50.770Z,10.26
2016-12-11T05:22:16.879Z,10.26
2016-12-11T05:22:42.975Z,10.25
2016-12-11T05:23:09.074Z,10.31
2016-12-11T05:23:35.187Z,10.31
2016-12-11T05:24:01.289Z,10.22
2016-12-11T05:24:27.394Z,10.31
2016-12-11T05:24:53.499Z,10.3
2016-12-11T05:25:19.599Z,10.28
2016-12-11T05:25:45.715Z,10.22
2016-12-11T05:26:11.813Z,10.28
2016-12-11T05:26:37.913Z,10.19
2016-12-11T05:27:04.025Z,10.09
2016-12-11T05:27:30.128Z,10.16
2016-12-11T05:27:56.223Z,10.09
2016-12-11T05:28:22.333Z,10.04
2016-12-11T05:28:48.436Z,10.09
2016-12-11T05:29:14.531Z,10.07
2016-12-11T05:29:40.641Z,10.02
2016-12-11T05:30:06.749Z,9.95
2016-12-11T05:30:32.851Z,9.95
2016-12-11T05:30:58.949Z,9.92
2016-12-11T05:31:25.049Z,9.94
2016-12-11T05:31:51.162Z,9.95
2016-12-11T05:32:17.265Z,9.94
2016-12-11T05:32:43.359Z,9.92
2016-12-11T05:33:09.472Z,9.95
2016-12-11T05:33:35.577Z,9.83
2016-12-11T05:34:01.674Z,9.82
2016-12-11T05:34:27.781Z,9.91
2016-12-11T05:34:53.886Z,9.94
2016-12-11T05:35:19.979Z,9.97
2016-12-11T05:35:46.082Z,9.97
2016-12-11T05:36:12.184Z,9.86
2016-12-11T05:36:38.292Z,9.98
2016-12-11T05:37:04.394Z,9.95